createdAt,value
2018-04-29T00:01:40.640Z,82.73
2018-04-29T00:04:43.943Z,79.23
2018-04-29T00:07:47.329Z,80.27
2018-04-29T00:10:50.738Z,84.40
2018-04-29T00:13:54.053Z,79.97
2018-04-29T00:16:57.440Z,83.67
2018-04-29T00:20:00.841Z,84.00
2018-04-29T00:23:04.170Z,83.07
2018-04-29T00:26:08.260Z,84.00
2018-04-29T00:29:11.659Z,84.90
2018-04-29T00:32:15.052Z,78.70
2018-04-29T00:35:18.359Z,77.17
2018-04-29T00:38:22.456Z,79.87
2018-04-29T00:41:25.758Z,86.27
2018-04-29T00:44:29.072Z,84.93
2018-04-29T00:47:32.458Z,90.63
2018-04-29T00:50:35.830Z,91.90
2018-04-29T00:53:39.153Z,93.83
2018-04-29T00:56:42.675Z,92.13
2018-04-29T00:59:45.996Z,93.33
2018-04-29T01:02:50.092Z,93.23
2018-04-29T01:05:53.545Z,91.47
2018-04-29T01:08:56.826Z,85.33
2018-04-29T01:12:00.180Z,82.33
2018-04-29T01:15:03.491Z,81.80
2018-04-29T01:18:06.845Z,91.27
2018-04-29T01:21:10.266Z,83.57
2018-04-29T01:24:13.599Z,89.30
2018-04-29T01:27:17.784Z,85.27
2018-04-29T01:30:21.093Z,83.83
2018-04-29T01:33:24.421Z,87.87
2018-04-29T01:36:28.510Z,84.47
2018-04-29T01:39:32.612Z,85.77
2018-04-29T01:42:35.950Z,80.07
2018-04-29T01:45:40.035Z,83.57
2018-04-29T01:48:43.386Z,83.73
2018-04-29T01:51:46.717Z,76.03
2018-04-29T01:54:50.116Z,78.87
2018-04-29T01:57:53.437Z,75.60
2018-04-29T02:00:56.823Z,71.37
2018-04-29T02:04:00.162Z,74.73
2018-04-29T02:07:04.281Z,73.07
2018-04-29T02:10:08.375Z,52.93
2018-04-29T02:13:11.754Z,44.00
2018-04-29T02:16:15.143Z,35.93
2018-04-29T02:19:18.458Z,33.87
2018-04-29T02:22:21.785Z,32.77
2018-04-29T02:25:25.968Z,32.00
2018-04-29T02:28:29.370Z,28.47
2018-04-29T02:31:32.766Z,28.37
2018-04-29T02:34:36.091Z,26.20
2018-04-29T02:37:40.289Z,31.83
2018-04-29T02:40:43.682Z,30.87
2018-04-29T02:43:47.018Z,30.57
2018-04-29T02:46:51.114Z,27.77
2018-04-29T02:49:54.484Z,25.40
2018-04-29T02:52:57.835Z,25.53
2018-04-29T02:56:02.017Z,33.47
2018-04-29T02:59:05.422Z,28.67
2018-04-29T03:02:08.770Z,28.07
2018-04-29T03:05:12.068Z,29.63
2018-04-29T03:08:15.398Z,31.07
2018-04-29T03:11:18.707Z,24.23
2018-04-29T03:14:22.113Z,27.17
2018-04-29T03:17:25.507Z,26.37
2018-04-29T03:20:28.829Z,23.93
2018-04-29T03:23:32.194Z,27.13
2018-04-29T03:26:35.506Z,26.90
2018-04-29T03:29:38.834Z,25.27
2018-04-29T03:32:42.196Z,29.90
2018-04-29T03:35:45.534Z,26.50
2018-04-29T03:38:49.613Z,27.83
2018-04-29T03:41:53.017Z,29.33
2018-04-29T03:44:56.328Z,32.57
2018-04-29T03:47:59.663Z,30.40
2018-04-29T03:51:02.974Z,40.77
2018-04-29T03:54:06.409Z,36.90
2018-04-29T03:57:27.560Z,41.13
2018-04-29T04:01:02.373Z,36.73
2018-04-29T04:04:05.712Z,37.57
2018-04-29T04:07:09.892Z,36.00
2018-04-29T04:10:13.287Z,42.10
2018-04-29T04:13:16.670Z,36.40
2018-04-29T04:16:20.085Z,45.33
2018-04-29T04:19:23.414Z,38.73
2018-04-29T04:22:27.514Z,48.57
2018-04-29T04:25:30.827Z,45.20
2018-04-29T04:28:34.910Z,47.10
2018-04-29T04:31:38.305Z,45.77
2018-04-29T04:34:41.705Z,43.97
2018-04-29T04:37:45.113Z,47.27
2018-04-29T04:40:48.505Z,51.37
2018-04-29T04:43:51.915Z,43.17
2018-04-29T04:46:55.240Z,47.20
2018-04-29T04:49:58.562Z,40.97
2018-04-29T04:53:01.902Z,43.37
2018-04-29T04:56:05.209Z,42.40
2018-04-29T04:59:08.605Z,47.37
2018-04-29T05:02:11.951Z,44.50
2018-04-29T05:05:16.030Z,46.40
2018-04-29T05:08:19.408Z,42.87
2018-04-29T05:11:22.725Z,41.47
2018-04-29T05:14:26.116Z,38.80
2018-04-29T05:17:29.521Z,41.10
2018-04-29T05:20:32.917Z,36.07
2018-04-29T05:23:36.421Z,38.27
2018-04-29T05:26:39.818Z,35.20
2018-04-29T05:29:43.145Z,39.97
2018-04-29T05:32:47.270Z,42.87
2018-04-29T05:35:51.444Z,43.07
2018-04-29T05:38:54.840Z,39.77
2018-04-29T05:41:58.245Z,39.30
2018-04-29T05:45:01.661Z,37.87
2018-04-29T05:48:05.864Z,36.60
2018-04-29T05:51:09.264Z,36.87
2018-04-29T05:54:12.671Z,35.90
2018-04-29T05:57:16.083Z,35.23
2018-04-29T06:00:19.515Z,37.73
2018-04-29T06:03:22.821Z,40.23
2018-04-29T06:06:27.085Z,38.40
2018-04-29T06:09:30.325Z,42.40
2018-04-29T06:12:34.561Z,39.17
2018-04-29T06:15:37.941Z,39.73
2018-04-29T06:18:41.253Z,41.43
2018-04-29T06:21:45.549Z,40.83
2018-04-29T06:24:48.878Z,41.80
2018-04-29T06:27:52.208Z,40.47
2018-04-29T06:30:55.516Z,39.23
2018-04-29T06:33:58.844Z,45.73
2018-04-29T06:37:03.050Z,42.77
2018-04-29T06:40:06.377Z,45.43
2018-04-29T06:43:10.473Z,43.03
2018-04-29T06:46:13.798Z,40.93
2018-04-29T06:49:19.091Z,40.07
2018-04-29T06:52:22.506Z,38.67
2018-04-29T06:55:25.903Z,41.90
2018-04-29T06:58:29.248Z,40.03
2018-04-29T07:01:32.571Z,39.70
2018-04-29T07:04:35.926Z,42.73
2018-04-29T07:07:40.005Z,40.17
2018-04-29T07:10:43.342Z,46.10
2018-04-29T07:13:47.539Z,38.73
2018-04-29T07:16:50.933Z,36.53
2018-04-29T07:19:54.292Z,37.27
2018-04-29T07:22:58.388Z,36.93
2018-04-29T07:26:01.786Z,36.47
2018-04-29T07:29:05.172Z,36.50
2018-04-29T07:32:09.264Z,33.93
2018-04-29T07:35:12.665Z,33.30
2018-04-29T07:38:16.015Z,34.90
2018-04-29T07:41:19.371Z,37.27
2018-04-29T07:44:22.704Z,36.27
2018-04-29T07:47:26.148Z,32.47
2018-04-29T07:50:29.496Z,36.67
2018-04-29T07:53:33.682Z,35.60
2018-04-29T07:56:36.998Z,35.70
2018-04-29T07:59:41.510Z,35.93
2018-04-29T08:02:45.625Z,37.93
2018-04-29T08:05:50.540Z,37.57
2018-04-29T08:08:53.859Z,35.47
2018-04-29T08:11:58.609Z,35.70
2018-04-29T08:15:02.714Z,34.10
2018-04-29T08:18:06.087Z,36.17
2018-04-29T08:21:09.481Z,33.63
2018-04-29T08:24:12.842Z,31.20
2018-04-29T08:27:16.161Z,31.27
2018-04-29T08:30:19.499Z,31.77
2018-04-29T08:33:22.877Z,34.03
2018-04-29T08:36:26.285Z,28.60
2018-04-29T08:39:29.594Z,35.93
2018-04-29T08:42:33.005Z,31.67
2018-04-29T08:45:37.193Z,32.27
2018-04-29T08:48:40.615Z,34.50
2018-04-29T08:51:43.938Z,34.07
2018-04-29T08:54:48.106Z,35.03
2018-04-29T08:57:52.133Z,32.30
2018-04-29T09:00:55.486Z,30.80
2018-04-29T09:03:58.902Z,31.73
2018-04-29T09:07:02.231Z,31.33
2018-04-29T09:10:05.636Z,30.13
2018-04-29T09:13:09.049Z,28.07
2018-04-29T09:16:12.435Z,31.10
2018-04-29T09:19:15.781Z,34.20
2018-04-29T09:22:19.149Z,30.57
2018-04-29T09:25:22.511Z,29.70
2018-04-29T09:28:25.825Z,32.80
2018-04-29T09:31:29.248Z,31.00
2018-04-29T09:34:32.603Z,33.07
2018-04-29T09:37:35.953Z,30.53
2018-04-29T09:40:39.281Z,32.50
2018-04-29T09:43:42.662Z,31.30
2018-04-29T09:46:46.025Z,30.13
2018-04-29T09:49:49.371Z,32.10
2018-04-29T09:52:52.703Z,28.27
2018-04-29T09:55:56.123Z,33.13
2018-04-29T09:58:59.441Z,30.17
2018-04-29T10:02:02.803Z,31.73
2018-04-29T10:05:06.126Z,29.07
2018-04-29T10:08:09.498Z,33.90
2018-04-29T10:11:12.817Z,32.33
2018-04-29T10:14:16.156Z,33.03
2018-04-29T10:17:20.238Z,28.73
2018-04-29T10:20:23.620Z,29.90
2018-04-29T10:23:27.034Z,30.33
2018-04-29T10:26:31.956Z,26.20
2018-04-29T10:29:35.260Z,26.13
2018-04-29T10:32:40.239Z,25.47
2018-04-29T10:35:43.485Z,25.57
2018-04-29T10:38:46.847Z,25.13
2018-04-29T10:41:50.904Z,29.47
2018-04-29T10:44:54.298Z,26.70
2018-04-29T10:47:57.604Z,29.47
2018-04-29T10:51:00.949Z,27.73
2018-04-29T10:54:05.021Z,28.23
2018-04-29T10:57:08.365Z,26.27
2018-04-29T11:00:12.445Z,25.10
2018-04-29T11:03:15.845Z,26.87
2018-04-29T11:06:19.232Z,28.30
2018-04-29T11:09:22.626Z,27.57
2018-04-29T11:12:25.948Z,29.87
2018-04-29T11:15:29.285Z,29.23
2018-04-29T11:18:32.636Z,31.70
2018-04-29T11:21:35.989Z,31.50
2018-04-29T11:24:39.418Z,31.73
2018-04-29T11:27:42.834Z,33.80
2018-04-29T11:30:46.154Z,31.30
2018-04-29T11:33:50.429Z,32.87
2018-04-29T11:36:53.904Z,33.93
2018-04-29T11:39:57.245Z,34.07
2018-04-29T11:43:00.566Z,31.97
2018-04-29T11:46:03.948Z,35.43
2018-04-29T11:49:07.350Z,34.13
2018-04-29T11:52:10.747Z,35.87
2018-04-29T11:55:14.091Z,31.27
2018-04-29T11:58:18.270Z,35.53
2018-04-29T12:01:21.705Z,32.13
2018-04-29T12:04:25.827Z,32.70
2018-04-29T12:07:29.172Z,34.40
2018-04-29T12:10:32.586Z,31.93
2018-04-29T12:13:35.912Z,33.57
2018-04-29T12:16:40.220Z,34.23
2018-04-29T12:19:43.585Z,35.37
2018-04-29T12:22:47.137Z,31.80
2018-04-29T12:25:51.246Z,34.40
2018-04-29T12:28:54.581Z,33.83
2018-04-29T12:31:57.914Z,28.33
2018-04-29T12:35:01.346Z,31.37
2018-04-29T12:38:04.672Z,32.07
2018-04-29T12:41:08.117Z,30.13
2018-04-29T12:44:11.568Z,33.10
2018-04-29T12:47:14.931Z,30.93
2018-04-29T12:50:18.315Z,35.63
2018-04-29T12:53:21.652Z,34.87
2018-04-29T12:56:25.743Z,30.23
2018-04-29T12:59:30.614Z,31.53
2018-04-29T13:02:33.948Z,36.90
2018-04-29T13:05:37.394Z,32.43
2018-04-29T13:08:41.469Z,30.73
2018-04-29T13:11:44.874Z,32.20
2018-04-29T13:14:48.189Z,33.20
2018-04-29T13:17:51.589Z,35.57
2018-04-29T13:20:54.937Z,37.83
2018-04-29T13:23:58.287Z,39.30
2018-04-29T13:27:01.625Z,42.23
2018-04-29T13:30:05.738Z,37.43
2018-04-29T13:33:09.829Z,42.30
2018-04-29T13:36:13.205Z,42.97
2018-04-29T13:39:16.522Z,43.30
2018-04-29T13:42:20.029Z,44.77
2018-04-29T13:45:23.308Z,39.93
2018-04-29T13:48:26.718Z,48.40
2018-04-29T13:51:30.029Z,42.37
2018-04-29T13:54:34.211Z,43.83
2018-04-29T13:57:37.626Z,41.87
2018-04-29T14:00:42.531Z,42.60
2018-04-29T14:03:45.853Z,48.10
2018-04-29T14:06:49.192Z,44.87
2018-04-29T14:09:53.291Z,47.33
2018-04-29T14:12:56.658Z,54.67
2018-04-29T14:15:59.985Z,57.43
2018-04-29T14:19:03.320Z,58.10
2018-04-29T14:22:06.692Z,51.30
2018-04-29T14:25:10.808Z,53.73
2018-04-29T14:28:14.176Z,52.20
2018-04-29T14:31:17.605Z,50.37
2018-04-29T14:34:20.888Z,46.60
2018-04-29T14:37:24.294Z,51.97
2018-04-29T14:40:27.646Z,50.77
2018-04-29T14:43:31.014Z,54.97
2018-04-29T14:46:35.098Z,53.43
2018-04-29T14:49:38.518Z,52.17
2018-04-29T14:52:42.610Z,50.50
2018-04-29T14:55:46.014Z,48.27
2018-04-29T14:58:49.407Z,51.13
2018-04-29T15:01:52.813Z,50.00
2018-04-29T15:04:56.272Z,44.90
2018-04-29T15:08:00.003Z,47.03
2018-04-29T15:11:04.500Z,47.93
2018-04-29T15:14:07.957Z,46.30
2018-04-29T15:17:11.637Z,46.60
2018-04-29T15:20:15.208Z,48.40
2018-04-29T15:23:18.915Z,47.37
2018-04-29T15:26:22.329Z,45.43
2018-04-29T15:29:25.987Z,47.93
2018-04-29T15:32:30.095Z,46.13
2018-04-29T15:35:33.487Z,43.20
2018-04-29T15:38:36.899Z,45.03
2018-04-29T15:41:40.286Z,49.73
2018-04-29T15:44:43.692Z,55.40
2018-04-29T15:47:47.011Z,51.97
2018-04-29T15:50:51.132Z,51.40
2018-04-29T15:53:55.226Z,53.00
2018-04-29T15:56:58.578Z,52.43
2018-04-29T16:00:01.922Z,55.47
2018-04-29T16:03:05.271Z,50.67
2018-04-29T16:06:08.635Z,60.37
2018-04-29T16:09:11.962Z,61.67
2018-04-29T16:12:15.303Z,57.10
2018-04-29T16:15:18.641Z,56.90
2018-04-29T16:18:22.838Z,59.43
2018-04-29T16:21:26.200Z,55.97
2018-04-29T16:24:29.621Z,60.80
2018-04-29T16:27:32.956Z,61.97
2018-04-29T16:30:37.157Z,58.57
2018-04-29T16:33:40.469Z,62.67
2018-04-29T16:36:44.576Z,64.60
2018-04-29T16:39:47.911Z,61.17
2018-04-29T16:42:51.277Z,61.93
2018-04-29T16:45:55.422Z,60.77
2018-04-29T16:48:58.880Z,68.33
2018-04-29T16:52:02.235Z,59.33
2018-04-29T16:55:05.587Z,54.63
2018-04-29T16:58:08.984Z,60.87
2018-04-29T17:01:12.365Z,56.40
2018-04-29T17:04:15.673Z,49.17
2018-04-29T17:07:19.024Z,54.00
2018-04-29T17:10:22.367Z,55.27
2018-04-29T17:13:25.799Z,57.43
2018-04-29T17:16:29.987Z,56.43
2018-04-29T17:19:33.304Z,52.63
2018-04-29T17:22:36.665Z,55.33
2018-04-29T17:25:40.003Z,55.43
2018-04-29T17:28:43.398Z,54.87
2018-04-29T17:31:46.886Z,48.30
2018-04-29T17:34:50.302Z,48.57
2018-04-29T17:37:53.639Z,46.13
2018-04-29T17:40:56.994Z,46.50
2018-04-29T17:44:01.211Z,43.40
2018-04-29T17:47:04.550Z,45.57
2018-04-29T17:50:08.010Z,40.60
2018-04-29T17:53:11.408Z,42.93
2018-04-29T17:56:14.758Z,44.27
2018-04-29T17:59:18.103Z,44.30
2018-04-29T18:02:21.496Z,41.00
2018-04-29T18:05:24.930Z,39.00
2018-04-29T18:08:29.142Z,40.33
2018-04-29T18:11:33.262Z,36.47
2018-04-29T18:14:37.454Z,39.60
2018-04-29T18:17:40.910Z,38.17
2018-04-29T18:20:44.348Z,36.23
2018-04-29T18:23:47.673Z,33.67
2018-04-29T18:26:51.246Z,32.73
2018-04-29T18:29:54.593Z,30.93
2018-04-29T18:32:58.685Z,32.77
2018-04-29T18:36:02.893Z,31.50
2018-04-29T18:39:06.317Z,27.23
2018-04-29T18:42:09.681Z,27.23
2018-04-29T18:45:13.110Z,26.27
2018-04-29T18:48:16.515Z,28.33
2018-04-29T18:51:19.972Z,25.87
2018-04-29T18:54:23.383Z,25.80
2018-04-29T18:57:26.742Z,22.57
2018-04-29T19:00:30.085Z,21.23
2018-04-29T19:03:33.426Z,23.60
2018-04-29T19:06:37.933Z,21.47
2018-04-29T19:09:41.274Z,20.43
2018-04-29T19:12:44.608Z,19.93
2018-04-29T19:15:48.017Z,19.20
2018-04-29T19:18:51.355Z,19.70
2018-04-29T19:21:55.525Z,17.80
2018-04-29T19:24:58.850Z,17.77
2018-04-29T19:28:04.384Z,17.37
2018-04-29T19:31:07.771Z,18.33
2018-04-29T19:34:11.231Z,17.50
2018-04-29T19:37:14.676Z,17.57
2018-04-29T19:40:19.228Z,17.93
2018-04-29T19:43:23.336Z,15.70
2018-04-29T19:46:26.699Z,16.80
2018-04-29T19:49:30.053Z,13.57
2018-04-29T19:52:34.166Z,12.83
2018-04-29T19:55:38.309Z,18.37
2018-04-29T19:58:41.643Z,16.27
2018-04-29T20:01:44.995Z,13.17
2018-04-29T20:04:49.144Z,13.00
2018-04-29T20:07:53.222Z,12.63
2018-04-29T20:10:56.706Z,11.80
2018-04-29T20:14:00.551Z,11.90
2018-04-29T20:17:03.880Z,10.63
2018-04-29T20:20:07.296Z,12.83
2018-04-29T20:23:10.630Z,11.37
2018-04-29T20:26:14.214Z,9.53
2018-04-29T20:29:17.602Z,9.33
2018-04-29T20:32:38.584Z,9.57
2018-04-29T20:35:42.027Z,10.40
2018-04-29T20:38:45.332Z,10.10
2018-04-29T20:41:48.657Z,9.83
2018-04-29T20:44:52.835Z,14.90
2018-04-29T20:47:56.223Z,12.40
2018-04-29T20:50:59.809Z,11.03
2018-04-29T20:54:03.281Z,8.97
2018-04-29T20:57:06.624Z,10.07
2018-04-29T21:00:10.076Z,11.27
2018-04-29T21:03:14.240Z,10.10
2018-04-29T21:06:17.587Z,11.23
2018-04-29T21:09:21.680Z,10.60
2018-04-29T21:12:25.019Z,9.50
2018-04-29T21:15:28.324Z,10.83
2018-04-29T21:18:31.659Z,10.70
2018-04-29T21:21:35.128Z,12.17
2018-04-29T21:24:38.450Z,9.13
2018-04-29T21:27:41.777Z,10.83
2018-04-29T21:30:45.149Z,11.37
2018-04-29T21:33:48.568Z,9.03
2018-04-29T21:36:51.986Z,10.33
2018-04-29T21:39:56.171Z,9.57
2018-04-29T21:42:59.568Z,11.83
2018-04-29T21:46:02.981Z,13.60
2018-04-29T21:49:06.310Z,10.50
2018-04-29T21:52:10.414Z,11.10
2018-04-29T21:55:13.732Z,11.30
2018-04-29T21:58:17.906Z,11.93
2018-04-29T22:01:21.224Z,13.57
2018-04-29T22:04:26.200Z,11.57
2018-04-29T22:07:29.524Z,12.67
2018-04-29T22:10:32.862Z,13.73
2018-04-29T22:13:36.190Z,13.00
2018-04-29T22:16:39.538Z,11.43
2018-04-29T22:19:42.848Z,11.87
2018-04-29T22:22:46.217Z,13.73
2018-04-29T22:25:49.520Z,11.77
2018-04-29T22:28:52.851Z,12.87
2018-04-29T22:31:56.179Z,11.63
2018-04-29T22:34:59.500Z,11.20
2018-04-29T22:38:02.816Z,11.77
2018-04-29T22:41:06.159Z,10.50
2018-04-29T22:44:10.393Z,10.43
2018-04-29T22:47:13.722Z,9.37
2018-04-29T22:50:17.148Z,12.40
2018-04-29T22:53:20.481Z,9.37
2018-04-29T22:56:24.579Z,8.00
2018-04-29T22:59:28.110Z,9.23
2018-04-29T23:02:31.548Z,9.80
2018-04-29T23:05:34.845Z,9.40
2018-04-29T23:08:38.152Z,9.00
2018-04-29T23:11:41.473Z,9.83
2018-04-29T23:14:44.803Z,9.47
2018-04-29T23:17:48.252Z,10.53
2018-04-29T23:20:51.643Z,10.03
2018-04-29T23:23:55.033Z,8.50
2018-04-29T23:26:58.360Z,8.67
2018-04-29T23:30:01.753Z,9.10
2018-04-29T23:33:05.078Z,9.83
2018-04-29T23:36:09.182Z,10.37
2018-04-29T23:39:12.549Z,8.97
2018-04-29T23:42:16.044Z,10.50
2018-04-29T23:45:19.357Z,9.30
2018-04-29T23:48:22.757Z,9.97
2018-04-29T23:51:26.161Z,9.37
2018-04-29T23:54:29.553Z,9.07
2018-04-29T23:57:32.869Z,7.90
